sensor_id;sensor_type;location;lat;lon;timestamp;temperature;humidity
20035;DHT22;10178;48.034;9.800;2023-02-11T00:00:24;-2.40;99.90
20035;DHT22;10178;48.034;9.800;2023-02-11T00:02:49;-2.40;99.90
20035;DHT22;10178;48.034;9.800;2023-02-11T00:05:15;-2.40;99.90
20035;DHT22;10178;48.034;9.800;2023-02-11T00:07:40;-2.40;99.90
20035;DHT22;10178;48.034;9.800;2023-02-11T00:10:07;-2.50;99.90
20035;DHT22;10178;48.034;9.800;2023-02-11T00:12:34;-2.40;99.90
20035;DHT22;10178;48.034;9.800;2023-02-11T00:15:00;-2.40;99.90
20035;DHT22;10178;48.034;9.800;2023-02-11T00:17:26;-2.40;99.90
20035;DHT22;10178;48.034;9.800;2023-02-11T00:19:52;-1.90;99.90
20035;DHT22;10178;48.034;9.800;2023-02-11T00:22:18;-1.60;99.90
20035;DHT22;10178;48.034;9.800;2023-02-11T00:24:44;-1.90;99.90
20035;DHT22;10178;48.034;9.800;2023-02-11T00:27:09;-1.70;99.90
20035;DHT22;10178;48.034;9.800;2023-02-11T00:29:36;-1.20;99.90
20035;DHT22;10178;48.034;9.800;2023-02-11T00:32:02;-0.70;99.90
20035;DHT22;10178;48.034;9.800;2023-02-11T00:34:30;-0.50;99.90
20035;DHT22;10178;48.034;9.800;2023-02-11T00:36:56;-0.60;99.90
20035;DHT22;10178;48.034;9.800;2023-02-11T00:39:21;-1.40;99.90
20035;DHT22;10178;48.034;9.800;2023-02-11T00:41:47;-1.90;99.90
20035;DHT22;10178;48.034;9.800;2023-02-11T00:44:13;-2.10;99.90
20035;DHT22;10178;48.034;9.800;2023-02-11T00:46:38;-2.20;99.90
20035;DHT22;10178;48.034;9.800;2023-02-11T00:49:04;-2.20;99.90
20035;DHT22;10178;48.034;9.800;2023-02-11T00:51:29;-1.70;99.90
20035;DHT22;10178;48.034;9.800;2023-02-11T00:53:55;-1.50;99.90
20035;DHT22;10178;48.034;9.800;2023-02-11T00:56:21;-1.70;99.90
20035;DHT22;10178;48.034;9.800;2023-02-11T00:58:46;-1.90;99.90
20035;DHT22;10178;48.034;9.800;2023-02-11T01:01:12;-1.60;99.90
20035;DHT22;10178;48.034;9.800;2023-02-11T01:03:39;-1.70;99.90
20035;DHT22;10178;48.034;9.800;2023-02-11T01:06:06;-2.10;99.90
20035;DHT22;10178;48.034;9.800;2023-02-11T01:08:32;-2.30;99.90
20035;DHT22;10178;48.034;9.800;2023-02-11T01:11:04;-2.50;99.90
20035;DHT22;10178;48.034;9.800;2023-02-11T01:13:30;-2.60;99.90
20035;DHT22;10178;48.034;9.800;2023-02-11T01:15:57;-2.70;99.90
20035;DHT22;10178;48.034;9.800;2023-02-11T01:18:23;-2.60;99.90
20035;DHT22;10178;48.034;9.800;2023-02-11T01:20:50;-2.60;99.90
20035;DHT22;10178;48.034;9.800;2023-02-11T01:23:16;-2.60;99.90
20035;DHT22;10178;48.034;9.800;2023-02-11T01:25:42;-2.70;99.90
20035;DHT22;10178;48.034;9.800;2023-02-11T01:28:21;-2.60;99.90
20035;DHT22;10178;48.034;9.800;2023-02-11T01:30:47;-2.50;99.90
20035;DHT22;10178;48.034;9.800;2023-02-11T01:33:12;-1.90;99.90
20035;DHT22;10178;48.034;9.800;2023-02-11T01:35:39;-1.40;99.90
20035;DHT22;10178;48.034;9.800;2023-02-11T01:38:06;-1.00;99.90
20035;DHT22;10178;48.034;9.800;2023-02-11T01:40:32;-0.70;99.90
20035;DHT22;10178;48.034;9.800;2023-02-11T01:42:57;-0.40;99.90
20035;DHT22;10178;48.034;9.800;2023-02-11T01:48:14;-0.20;99.90
20035;DHT22;10178;48.034;9.800;2023-02-11T01:50:41;-0.10;99.90
20035;DHT22;10178;48.034;9.800;2023-02-11T01:53:08;-0.10;99.90
20035;DHT22;10178;48.034;9.800;2023-02-11T01:55:53;0.00;99.90
20035;DHT22;10178;48.034;9.800;2023-02-11T01:58:40;0.00;99.90
20035;DHT22;10178;48.034;9.800;2023-02-11T02:01:07;0.00;99.90
20035;DHT22;10178;48.034;9.800;2023-02-11T02:03:36;0.10;99.90
20035;DHT22;10178;48.034;9.800;2023-02-11T02:06:29;0.00;99.90
20035;DHT22;10178;48.034;9.800;2023-02-11T02:09:21;0.00;99.90
20035;DHT22;10178;48.034;9.800;2023-02-11T02:11:47;0.10;99.90
20035;DHT22;10178;48.034;9.800;2023-02-11T02:14:13;0.10;99.90
20035;DHT22;10178;48.034;9.800;2023-02-11T02:16:39;0.10;99.90
20035;DHT22;10178;48.034;9.800;2023-02-11T02:28:05;0.00;99.90
20035;DHT22;10178;48.034;9.800;2023-02-11T02:30:53;0.00;99.90
20035;DHT22;10178;48.034;9.800;2023-02-11T02:33:52;0.00;99.90
20035;DHT22;10178;48.034;9.800;2023-02-11T02:36:27;-0.80;99.90
20035;DHT22;10178;48.034;9.800;2023-02-11T02:39:05;-1.40;99.90
20035;DHT22;10178;48.034;9.800;2023-02-11T02:41:32;-2.10;99.90
20035;DHT22;10178;48.034;9.800;2023-02-11T02:43:59;-2.30;99.90
20035;DHT22;10178;48.034;9.800;2023-02-11T02:46:31;-1.70;99.90
20035;DHT22;10178;48.034;9.800;2023-02-11T02:48:57;-1.10;99.90
20035;DHT22;10178;48.034;9.800;2023-02-11T02:51:45;-0.80;99.90
20035;DHT22;10178;48.034;9.800;2023-02-11T03:03:09;-0.30;99.90
20035;DHT22;10178;48.034;9.800;2023-02-11T03:08:15;-0.20;99.90
20035;DHT22;10178;48.034;9.800;2023-02-11T03:10:45;-0.70;99.90
20035;DHT22;10178;48.034;9.800;2023-02-11T03:13:13;-1.40;99.90
20035;DHT22;10178;48.034;9.800;2023-02-11T03:15:44;-1.90;99.90
20035;DHT22;10178;48.034;9.800;2023-02-11T03:18:14;-1.70;99.90
20035;DHT22;10178;48.034;9.800;2023-02-11T03:20:43;-2.00;99.90
20035;DHT22;10178;48.034;9.800;2023-02-11T03:26:29;-1.90;99.90
20035;DHT22;10178;48.034;9.800;2023-02-11T03:32:09;-3.50;99.90
20035;DHT22;10178;48.034;9.800;2023-02-11T03:34:59;-3.80;99.90
20035;DHT22;10178;48.034;9.800;2023-02-11T03:37:39;-3.90;99.90
20035;DHT22;10178;48.034;9.800;2023-02-11T03:40:07;-3.90;99.90
20035;DHT22;10178;48.034;9.800;2023-02-11T03:42:50;-3.40;99.90
20035;DHT22;10178;48.034;9.800;2023-02-11T03:45:19;-2.80;99.90
20035;DHT22;10178;48.034;9.800;2023-02-11T03:47:49;-2.40;99.90
20035;DHT22;10178;48.034;9.800;2023-02-11T03:50:17;-2.00;99.90
20035;DHT22;10178;48.034;9.800;2023-02-11T03:52:44;-2.50;99.90
20035;DHT22;10178;48.034;9.800;2023-02-11T03:55:14;-2.80;99.90
20035;DHT22;10178;48.034;9.800;2023-02-11T03:57:41;-3.10;99.90
20035;DHT22;10178;48.034;9.800;2023-02-11T04:00:08;-3.30;99.90
20035;DHT22;10178;48.034;9.800;2023-02-11T04:02:35;-3.40;99.90
20035;DHT22;10178;48.034;9.800;2023-02-11T04:05:01;-3.40;99.90
20035;DHT22;10178;48.034;9.800;2023-02-11T04:07:27;-3.30;99.90
20035;DHT22;10178;48.034;9.800;2023-02-11T04:09:53;-2.70;99.90
20035;DHT22;10178;48.034;9.800;2023-02-11T04:12:19;-2.10;99.90
20035;DHT22;10178;48.034;9.800;2023-02-11T04:14:45;-1.60;99.90
20035;DHT22;10178;48.034;9.800;2023-02-11T04:17:11;-1.30;99.90
20035;DHT22;10178;48.034;9.800;2023-02-11T04:19:36;-1.10;99.90
20035;DHT22;10178;48.034;9.800;2023-02-11T04:22:03;-0.90;99.90
20035;DHT22;10178;48.034;9.800;2023-02-11T04:24:29;-0.80;99.90
20035;DHT22;10178;48.034;9.800;2023-02-11T04:26:55;-0.70;99.90
20035;DHT22;10178;48.034;9.800;2023-02-11T04:29:21;-0.60;99.90
20035;DHT22;10178;48.034;9.800;2023-02-11T04:31:47;-0.60;99.90
20035;DHT22;10178;48.034;9.800;2023-02-11T04:34:13;-0.90;99.90
20035;DHT22;10178;48.034;9.800;2023-02-11T04:36:38;-1.10;99.90
20035;DHT22;10178;48.034;9.800;2023-02-11T04:39:04;-0.80;99.90
20035;DHT22;10178;48.034;9.800;2023-02-11T04:41:30;-0.60;99.90
20035;DHT22;10178;48.034;9.800;2023-02-11T04:43:55;-0.50;99.90
20035;DHT22;10178;48.034;9.800;2023-02-11T04:46:21;-0.50;99.90
20035;DHT22;10178;48.034;9.800;2023-02-11T04:48:47;-0.40;99.90
20035;DHT22;10178;48.034;9.800;2023-02-11T04:51:12;-0.40;99.90
20035;DHT22;10178;48.034;9.800;2023-02-11T04:53:38;-1.40;99.90
20035;DHT22;10178;48.034;9.800;2023-02-11T04:56:04;-2.20;99.90
20035;DHT22;10178;48.034;9.800;2023-02-11T04:58:30;-2.50;99.90
20035;DHT22;10178;48.034;9.800;2023-02-11T05:01:03;-2.50;99.90
20035;DHT22;10178;48.034;9.800;2023-02-11T05:03:29;-2.40;99.90
20035;DHT22;10178;48.034;9.800;2023-02-11T05:05:54;-1.80;99.90
20035;DHT22;10178;48.034;9.800;2023-02-11T05:08:20;-1.40;99.90
20035;DHT22;10178;48.034;9.800;2023-02-11T05:10:46;-1.00;99.90
20035;DHT22;10178;48.034;9.800;2023-02-11T05:13:12;-0.80;99.90
20035;DHT22;10178;48.034;9.800;2023-02-11T05:15:38;-0.70;99.90
20035;DHT22;10178;48.034;9.800;2023-02-11T05:18:03;-0.50;99.90
20035;DHT22;10178;48.034;9.800;2023-02-11T05:20:29;-0.50;99.90
20035;DHT22;10178;48.034;9.800;2023-02-11T05:22:54;-0.50;99.90
20035;DHT22;10178;48.034;9.800;2023-02-11T05:25:20;-0.40;99.90
20035;DHT22;10178;48.034;9.800;2023-02-11T05:27:46;-0.40;99.90
20035;DHT22;10178;48.034;9.800;2023-02-11T05:30:11;-0.40;99.90
20035;DHT22;10178;48.034;9.800;2023-02-11T05:32:37;-0.30;99.90
20035;DHT22;10178;48.034;9.800;2023-02-11T05:35:03;-0.30;99.90
20035;DHT22;10178;48.034;9.800;2023-02-11T05:37:29;-0.30;99.90
20035;DHT22;10178;48.034;9.800;2023-02-11T05:39:54;-0.30;99.90
20035;DHT22;10178;48.034;9.800;2023-02-11T05:42:20;-0.40;99.90
20035;DHT22;10178;48.034;9.800;2023-02-11T05:44:45;-0.40;99.90
20035;DHT22;10178;48.034;9.800;2023-02-11T05:47:11;-0.40;99.90
20035;DHT22;10178;48.034;9.800;2023-02-11T05:49:37;-0.40;99.90
20035;DHT22;10178;48.034;9.800;2023-02-11T05:52:02;-0.50;99.90
20035;DHT22;10178;48.034;9.800;2023-02-11T05:54:28;-1.10;99.90
20035;DHT22;10178;48.034;9.800;2023-02-11T05:56:54;-1.20;99.90
20035;DHT22;10178;48.034;9.800;2023-02-11T05:59:19;-0.90;99.90
20035;DHT22;10178;48.034;9.800;2023-02-11T06:01:45;-0.60;99.90
20035;DHT22;10178;48.034;9.800;2023-02-11T06:04:10;-0.50;99.90
20035;DHT22;10178;48.034;9.800;2023-02-11T06:06:36;-0.50;99.90
20035;DHT22;10178;48.034;9.800;2023-02-11T06:09:02;-0.40;99.90
20035;DHT22;10178;48.034;9.800;2023-02-11T06:11:27;-0.40;99.90
20035;DHT22;10178;48.034;9.800;2023-02-11T06:13:53;-0.40;99.90
20035;DHT22;10178;48.034;9.800;2023-02-11T06:16:18;-0.40;99.90
20035;DHT22;10178;48.034;9.800;2023-02-11T06:18:44;-0.70;99.90
20035;DHT22;10178;48.034;9.800;2023-02-11T06:21:10;-0.70;99.90
20035;DHT22;10178;48.034;9.800;2023-02-11T06:23:37;-0.50;99.90
20035;DHT22;10178;48.034;9.800;2023-02-11T06:26:04;-0.40;99.90
20035;DHT22;10178;48.034;9.800;2023-02-11T06:28:30;-0.80;99.90
20035;DHT22;10178;48.034;9.800;2023-02-11T06:30:56;-1.70;99.90
20035;DHT22;10178;48.034;9.800;2023-02-11T06:33:22;-1.60;99.90
20035;DHT22;10178;48.034;9.800;2023-02-11T06:35:48;-1.20;99.90
20035;DHT22;10178;48.034;9.800;2023-02-11T06:38:14;-0.90;99.90
20035;DHT22;10178;48.034;9.800;2023-02-11T06:40:40;-0.70;99.90
20035;DHT22;10178;48.034;9.800;2023-02-11T06:43:06;-1.30;99.90
20035;DHT22;10178;48.034;9.800;2023-02-11T06:45:31;-1.60;99.90
20035;DHT22;10178;48.034;9.800;2023-02-11T06:47:57;-1.80;99.90
20035;DHT22;10178;48.034;9.800;2023-02-11T06:50:22;-2.10;99.90
20035;DHT22;10178;48.034;9.800;2023-02-11T06:52:48;-2.60;99.90
20035;DHT22;10178;48.034;9.800;2023-02-11T06:55:14;-2.80;99.90
20035;DHT22;10178;48.034;9.800;2023-02-11T06:57:39;-2.80;99.90
20035;DHT22;10178;48.034;9.800;2023-02-11T07:00:05;-2.60;99.90
20035;DHT22;10178;48.034;9.800;2023-02-11T07:02:31;-2.10;99.90
20035;DHT22;10178;48.034;9.800;2023-02-11T07:04:57;-1.60;99.90
20035;DHT22;10178;48.034;9.800;2023-02-11T07:07:22;-1.30;99.90
20035;DHT22;10178;48.034;9.800;2023-02-11T07:09:48;-1.70;99.90
20035;DHT22;10178;48.034;9.800;2023-02-11T07:12:14;-2.20;99.90
20035;DHT22;10178;48.034;9.800;2023-02-11T07:14:39;-1.90;99.90
20035;DHT22;10178;48.034;9.800;2023-02-11T07:17:05;-1.50;99.90
20035;DHT22;10178;48.034;9.800;2023-02-11T07:19:30;-1.10;99.90
20035;DHT22;10178;48.034;9.800;2023-02-11T07:21:56;-1.50;99.90
20035;DHT22;10178;48.034;9.800;2023-02-11T07:24:22;-1.70;99.90
20035;DHT22;10178;48.034;9.800;2023-02-11T07:26:47;-1.40;99.90
20035;DHT22;10178;48.034;9.800;2023-02-11T07:29:13;-1.40;99.90
20035;DHT22;10178;48.034;9.800;2023-02-11T07:31:39;-1.40;99.90
20035;DHT22;10178;48.034;9.800;2023-02-11T07:34:04;-1.80;99.90
20035;DHT22;10178;48.034;9.800;2023-02-11T07:36:30;-2.00;99.90
20035;DHT22;10178;48.034;9.800;2023-02-11T07:38:56;-2.00;99.90
20035;DHT22;10178;48.034;9.800;2023-02-11T07:41:23;-1.60;99.90
20035;DHT22;10178;48.034;9.800;2023-02-11T07:43:50;-1.20;99.90
20035;DHT22;10178;48.034;9.800;2023-02-11T07:46:18;-0.90;99.90
20035;DHT22;10178;48.034;9.800;2023-02-11T07:48:44;-0.80;99.90
20035;DHT22;10178;48.034;9.800;2023-02-11T07:51:15;-0.70;99.90
20035;DHT22;10178;48.034;9.800;2023-02-11T07:53:42;-0.60;99.90
20035;DHT22;10178;48.034;9.800;2023-02-11T07:56:09;-0.50;99.90
20035;DHT22;10178;48.034;9.800;2023-02-11T07:58:35;-0.70;99.90
20035;DHT22;10178;48.034;9.800;2023-02-11T08:01:05;-1.00;99.90
20035;DHT22;10178;48.034;9.800;2023-02-11T08:03:32;-1.30;99.90
20035;DHT22;10178;48.034;9.800;2023-02-11T08:06:06;-1.60;99.90
20035;DHT22;10178;48.034;9.800;2023-02-11T08:08:32;-1.80;99.90
20035;DHT22;10178;48.034;9.800;2023-02-11T08:10:57;-1.80;99.90
20035;DHT22;10178;48.034;9.800;2023-02-11T08:13:23;-1.80;99.90
20035;DHT22;10178;48.034;9.800;2023-02-11T08:15:51;-1.60;99.90
20035;DHT22;10178;48.034;9.800;2023-02-11T08:18:16;-1.40;99.90
20035;DHT22;10178;48.034;9.800;2023-02-11T08:20:42;-1.40;99.90
20035;DHT22;10178;48.034;9.800;2023-02-11T08:23:08;-1.40;99.90
20035;DHT22;10178;48.034;9.800;2023-02-11T08:25:33;-1.50;99.90
20035;DHT22;10178;48.034;9.800;2023-02-11T08:27:59;-1.30;99.90
20035;DHT22;10178;48.034;9.800;2023-02-11T08:30:24;-1.10;99.90
20035;DHT22;10178;48.034;9.800;2023-02-11T08:32:50;-1.00;99.90
20035;DHT22;10178;48.034;9.800;2023-02-11T08:35:16;-0.90;99.90
20035;DHT22;10178;48.034;9.800;2023-02-11T08:37:41;-0.70;99.90
20035;DHT22;10178;48.034;9.800;2023-02-11T08:40:07;-0.60;99.90
20035;DHT22;10178;48.034;9.800;2023-02-11T08:42:33;-0.60;99.90
20035;DHT22;10178;48.034;9.800;2023-02-11T08:44:58;-0.50;99.90
20035;DHT22;10178;48.034;9.800;2023-02-11T08:47:24;-0.40;99.90
20035;DHT22;10178;48.034;9.800;2023-02-11T08:49:50;-0.30;99.90
20035;DHT22;10178;48.034;9.800;2023-02-11T08:52:15;-0.30;99.90
20035;DHT22;10178;48.034;9.800;2023-02-11T08:54:41;-0.20;99.90
20035;DHT22;10178;48.034;9.800;2023-02-11T08:57:07;-0.10;99.90
20035;DHT22;10178;48.034;9.800;2023-02-11T08:59:33;0.00;99.90
20035;DHT22;10178;48.034;9.800;2023-02-11T09:01:58;0.00;99.90
20035;DHT22;10178;48.034;9.800;2023-02-11T09:04:24;0.10;99.90
20035;DHT22;10178;48.034;9.800;2023-02-11T09:06:50;0.20;99.90
20035;DHT22;10178;48.034;9.800;2023-02-11T09:09:16;0.30;99.90
20035;DHT22;10178;48.034;9.800;2023-02-11T09:11:42;0.40;99.90
20035;DHT22;10178;48.034;9.800;2023-02-11T09:14:18;0.50;99.90
20035;DHT22;10178;48.034;9.800;2023-02-11T09:16:44;0.60;99.90
20035;DHT22;10178;48.034;9.800;2023-02-11T09:19:10;0.60;99.90
20035;DHT22;10178;48.034;9.800;2023-02-11T09:21:36;0.70;99.90
20035;DHT22;10178;48.034;9.800;2023-02-11T09:24:02;0.70;99.90
20035;DHT22;10178;48.034;9.800;2023-02-11T09:26:30;0.80;99.90
20035;DHT22;10178;48.034;9.800;2023-02-11T09:28:57;0.80;99.90
20035;DHT22;10178;48.034;9.800;2023-02-11T09:31:29;0.80;99.90
20035;DHT22;10178;48.034;9.800;2023-02-11T09:33:57;0.90;99.90
20035;DHT22;10178;48.034;9.800;2023-02-11T09:36:35;0.90;99.90
20035;DHT22;10178;48.034;9.800;2023-02-11T09:39:04;0.90;99.90
20035;DHT22;10178;48.034;9.800;2023-02-11T09:44:30;0.80;99.90
20035;DHT22;10178;48.034;9.800;2023-02-11T09:47:02;0.80;99.90
20035;DHT22;10178;48.034;9.800;2023-02-11T09:49:38;0.90;99.90
20035;DHT22;10178;48.034;9.800;2023-02-11T09:57:14;1.00;99.90
20035;DHT22;10178;48.034;9.800;2023-02-11T09:59:41;1.00;99.90
20035;DHT22;10178;48.034;9.800;2023-02-11T10:06:04;1.20;99.90
20035;DHT22;10178;48.034;9.800;2023-02-11T10:08:34;1.30;99.90
20035;DHT22;10178;48.034;9.800;2023-02-11T10:11:11;1.30;99.90
20035;DHT22;10178;48.034;9.800;2023-02-11T10:16:40;1.40;99.90
20035;DHT22;10178;48.034;9.800;2023-02-11T10:22:21;1.40;99.90
20035;DHT22;10178;48.034;9.800;2023-02-11T10:24:54;1.40;99.90
20035;DHT22;10178;48.034;9.800;2023-02-11T10:27:27;1.60;99.90
20035;DHT22;10178;48.034;9.800;2023-02-11T10:32:58;2.40;99.90
20035;DHT22;10178;48.034;9.800;2023-02-11T10:35:27;2.60;99.90
20035;DHT22;10178;48.034;9.800;2023-02-11T10:37:53;2.90;99.90
20035;DHT22;10178;48.034;9.800;2023-02-11T10:40:25;2.90;99.90
20035;DHT22;10178;48.034;9.800;2023-02-11T10:42:54;3.10;99.90
20035;DHT22;10178;48.034;9.800;2023-02-11T10:45:32;3.30;99.90
20035;DHT22;10178;48.034;9.800;2023-02-11T10:54:13;3.90;99.90
20035;DHT22;10178;48.034;9.800;2023-02-11T10:56:46;3.90;99.90
20035;DHT22;10178;48.034;9.800;2023-02-11T10:59:27;4.00;99.90
20035;DHT22;10178;48.034;9.800;2023-02-11T11:01:57;4.00;99.90
20035;DHT22;10178;48.034;9.800;2023-02-11T11:04:39;4.00;99.90
20035;DHT22;10178;48.034;9.800;2023-02-11T11:07:21;4.00;99.90
20035;DHT22;10178;48.034;9.800;2023-02-11T11:09:51;3.90;99.90
20035;DHT22;10178;48.034;9.800;2023-02-11T11:12:30;4.00;99.90
20035;DHT22;10178;48.034;9.800;2023-02-11T11:15:02;4.10;99.90
20035;DHT22;10178;48.034;9.800;2023-02-11T11:17:37;4.10;99.90
20035;DHT22;10178;48.034;9.800;2023-02-11T11:20:22;4.10;99.90
20035;DHT22;10178;48.034;9.800;2023-02-11T11:23:06;4.40;99.90
20035;DHT22;10178;48.034;9.800;2023-02-11T11:25:36;4.40;99.90
20035;DHT22;10178;48.034;9.800;2023-02-11T11:28:03;4.30;99.90
20035;DHT22;10178;48.034;9.800;2023-02-11T11:30:39;4.20;99.90
20035;DHT22;10178;48.034;9.800;2023-02-11T11:33:24;4.30;99.90
20035;DHT22;10178;48.034;9.800;2023-02-11T11:36:08;4.20;99.90
20035;DHT22;10178;48.034;9.800;2023-02-11T11:38:44;4.20;99.90
20035;DHT22;10178;48.034;9.800;2023-02-11T11:41:29;4.30;99.90
20035;DHT22;10178;48.034;9.800;2023-02-11T11:46:48;4.50;99.90
20035;DHT22;10178;48.034;9.800;2023-02-11T11:49:28;4.70;99.90
20035;DHT22;10178;48.034;9.800;2023-02-11T11:54:35;5.00;99.90
20035;DHT22;10178;48.034;9.800;2023-02-11T11:57:16;5.00;99.90
20035;DHT22;10178;48.034;9.800;2023-02-11T11:59:43;4.90;99.90
20035;DHT22;10178;48.034;9.800;2023-02-11T12:08:25;4.90;99.90
20035;DHT22;10178;48.034;9.800;2023-02-11T12:11:06;5.10;99.90
20035;DHT22;10178;48.034;9.800;2023-02-11T12:27:38;5.30;99.90
20035;DHT22;10178;48.034;9.800;2023-02-11T12:41:38;5.80;99.90
20035;DHT22;10178;48.034;9.800;2023-02-11T12:55:27;6.40;99.90
20035;DHT22;10178;48.034;9.800;2023-02-11T12:57:57;6.40;99.90
20035;DHT22;10178;48.034;9.800;2023-02-11T13:00:32;6.40;99.90
20035;DHT22;10178;48.034;9.800;2023-02-11T13:05:45;6.30;99.90
20035;DHT22;10178;48.034;9.800;2023-02-11T13:10:48;6.40;99.90
20035;DHT22;10178;48.034;9.800;2023-02-11T13:13:21;6.30;99.90
20035;DHT22;10178;48.034;9.800;2023-02-11T13:15:55;6.20;99.90
20035;DHT22;10178;48.034;9.800;2023-02-11T13:18:29;6.20;99.90
20035;DHT22;10178;48.034;9.800;2023-02-11T13:23:38;6.10;99.90
20035;DHT22;10178;48.034;9.800;2023-02-11T13:29:28;5.90;99.90
20035;DHT22;10178;48.034;9.800;2023-02-11T13:32:08;6.10;99.90
20035;DHT22;10178;48.034;9.800;2023-02-11T13:45:43;6.40;99.90
20035;DHT22;10178;48.034;9.800;2023-02-11T13:48:23;6.30;99.90
20035;DHT22;10178;48.034;9.800;2023-02-11T13:50:53;6.10;99.90
20035;DHT22;10178;48.034;9.800;2023-02-11T13:53:20;6.00;99.90
20035;DHT22;10178;48.034;9.800;2023-02-11T13:55:49;5.90;99.90
20035;DHT22;10178;48.034;9.800;2023-02-11T14:00:45;5.90;99.90
20035;DHT22;10178;48.034;9.800;2023-02-11T14:14:20;6.10;99.90
20035;DHT22;10178;48.034;9.800;2023-02-11T14:19:43;6.10;99.90
20035;DHT22;10178;48.034;9.800;2023-02-11T14:27:40;6.20;99.90
20035;DHT22;10178;48.034;9.800;2023-02-11T14:30:25;6.10;99.90
20035;DHT22;10178;48.034;9.800;2023-02-11T14:33:15;6.10;99.90
20035;DHT22;10178;48.034;9.800;2023-02-11T14:36:11;6.20;99.90
20035;DHT22;10178;48.034;9.800;2023-02-11T14:41:47;6.00;99.90
20035;DHT22;10178;48.034;9.800;2023-02-11T14:46:45;6.00;99.90
20035;DHT22;10178;48.034;9.800;2023-02-11T14:49:20;5.90;99.90
20035;DHT22;10178;48.034;9.800;2023-02-11T14:51:49;6.00;99.90
20035;DHT22;10178;48.034;9.800;2023-02-11T14:54:20;6.00;99.90
20035;DHT22;10178;48.034;9.800;2023-02-11T14:59:31;6.10;99.90
20035;DHT22;10178;48.034;9.800;2023-02-11T15:01:56;6.10;99.90
20035;DHT22;10178;48.034;9.800;2023-02-11T15:06:51;6.00;99.90
20035;DHT22;10178;48.034;9.800;2023-02-11T15:09:18;5.90;99.90
20035;DHT22;10178;48.034;9.800;2023-02-11T15:11:47;5.90;99.90
20035;DHT22;10178;48.034;9.800;2023-02-11T15:14:27;5.90;99.90
20035;DHT22;10178;48.034;9.800;2023-02-11T15:16:56;5.80;99.90
20035;DHT22;10178;48.034;9.800;2023-02-11T15:19:38;5.80;99.90
20035;DHT22;10178;48.034;9.800;2023-02-11T15:22:14;5.80;99.90
20035;DHT22;10178;48.034;9.800;2023-02-11T15:24:44;5.70;99.90
20035;DHT22;10178;48.034;9.800;2023-02-11T15:27:13;5.70;99.90
20035;DHT22;10178;48.034;9.800;2023-02-11T15:29:44;5.70;99.90
20035;DHT22;10178;48.034;9.800;2023-02-11T15:32:19;5.60;99.90
20035;DHT22;10178;48.034;9.800;2023-02-11T15:34:47;5.50;99.90
20035;DHT22;10178;48.034;9.800;2023-02-11T15:39:44;5.60;99.90
20035;DHT22;10178;48.034;9.800;2023-02-11T15:42:21;5.60;99.90
20035;DHT22;10178;48.034;9.800;2023-02-11T15:44:49;5.60;99.90
20035;DHT22;10178;48.034;9.800;2023-02-11T15:47:19;5.60;99.90
20035;DHT22;10178;48.034;9.800;2023-02-11T15:49:46;5.60;99.90
20035;DHT22;10178;48.034;9.800;2023-02-11T15:52:13;5.60;99.90
20035;DHT22;10178;48.034;9.800;2023-02-11T15:54:46;5.50;99.90
20035;DHT22;10178;48.034;9.800;2023-02-11T15:57:12;5.60;99.90
20035;DHT22;10178;48.034;9.800;2023-02-11T15:59:44;5.70;99.90
20035;DHT22;10178;48.034;9.800;2023-02-11T16:02:29;5.60;99.90
20035;DHT22;10178;48.034;9.800;2023-02-11T16:04:59;5.50;99.90
20035;DHT22;10178;48.034;9.800;2023-02-11T16:07:46;5.40;99.90
20035;DHT22;10178;48.034;9.800;2023-02-11T16:12:55;5.30;99.90
20035;DHT22;10178;48.034;9.800;2023-02-11T16:17:54;5.20;99.90
20035;DHT22;10178;48.034;9.800;2023-02-11T16:20:20;5.00;99.90
20035;DHT22;10178;48.034;9.800;2023-02-11T16:22:46;4.90;99.90
20035;DHT22;10178;48.034;9.800;2023-02-11T16:25:19;4.90;99.90
20035;DHT22;10178;48.034;9.800;2023-02-11T16:27:52;4.90;99.90
20035;DHT22;10178;48.034;9.800;2023-02-11T16:30:35;4.70;99.90
20035;DHT22;10178;48.034;9.800;2023-02-11T16:33:02;4.60;99.90
20035;DHT22;10178;48.034;9.800;2023-02-11T16:35:28;4.50;99.90
20035;DHT22;10178;48.034;9.800;2023-02-11T16:37:54;4.40;99.90
20035;DHT22;10178;48.034;9.800;2023-02-11T16:40:20;4.20;99.90
20035;DHT22;10178;48.034;9.800;2023-02-11T16:42:47;4.10;99.90
20035;DHT22;10178;48.034;9.800;2023-02-11T16:45:13;3.90;99.90
20035;DHT22;10178;48.034;9.800;2023-02-11T16:47:41;3.90;99.90
20035;DHT22;10178;48.034;9.800;2023-02-11T16:50:18;3.80;99.90
20035;DHT22;10178;48.034;9.800;2023-02-11T16:52:44;3.70;99.90
20035;DHT22;10178;48.034;9.800;2023-02-11T16:55:11;3.70;99.90
20035;DHT22;10178;48.034;9.800;2023-02-11T16:57:37;3.70;99.90
20035;DHT22;10178;48.034;9.800;2023-02-11T17:00:05;3.60;99.90
20035;DHT22;10178;48.034;9.800;2023-02-11T17:02:34;3.50;99.90
20035;DHT22;10178;48.034;9.800;2023-02-11T17:05:02;3.40;99.90
20035;DHT22;10178;48.034;9.800;2023-02-11T17:07:28;3.30;99.90
20035;DHT22;10178;48.034;9.800;2023-02-11T17:09:54;3.20;99.90
20035;DHT22;10178;48.034;9.800;2023-02-11T17:12:20;3.30;99.90
20035;DHT22;10178;48.034;9.800;2023-02-11T17:14:46;3.20;99.90
20035;DHT22;10178;48.034;9.800;2023-02-11T17:17:12;3.30;99.90
20035;DHT22;10178;48.034;9.800;2023-02-11T17:19:38;3.30;99.90
20035;DHT22;10178;48.034;9.800;2023-02-11T17:22:04;3.20;99.90
20035;DHT22;10178;48.034;9.800;2023-02-11T17:24:31;3.00;99.90
20035;DHT22;10178;48.034;9.800;2023-02-11T17:26:56;3.20;99.90
20035;DHT22;10178;48.034;9.800;2023-02-11T17:29:23;3.00;99.90
20035;DHT22;10178;48.034;9.800;2023-02-11T17:31:50;3.00;99.90
20035;DHT22;10178;48.034;9.800;2023-02-11T17:34:17;3.30;99.90
20035;DHT22;10178;48.034;9.800;2023-02-11T17:36:43;3.80;99.90
20035;DHT22;10178;48.034;9.800;2023-02-11T17:39:09;4.10;99.90
20035;DHT22;10178;48.034;9.800;2023-02-11T17:41:36;4.20;99.90
20035;DHT22;10178;48.034;9.800;2023-02-11T17:44:03;4.20;99.90
20035;DHT22;10178;48.034;9.800;2023-02-11T17:46:29;4.10;99.90
20035;DHT22;10178;48.034;9.800;2023-02-11T17:48:56;4.30;99.90
20035;DHT22;10178;48.034;9.800;2023-02-11T17:51:25;4.40;99.90
20035;DHT22;10178;48.034;9.800;2023-02-11T17:53:52;4.50;99.90
20035;DHT22;10178;48.034;9.800;2023-02-11T17:56:18;4.50;99.90
20035;DHT22;10178;48.034;9.800;2023-02-11T17:58:44;4.50;99.90
20035;DHT22;10178;48.034;9.800;2023-02-11T18:01:10;4.50;99.90
20035;DHT22;10178;48.034;9.800;2023-02-11T18:03:36;4.50;99.90
20035;DHT22;10178;48.034;9.800;2023-02-11T18:06:04;4.40;99.90
20035;DHT22;10178;48.034;9.800;2023-02-11T18:08:31;4.40;99.90
20035;DHT22;10178;48.034;9.800;2023-02-11T18:10:57;4.40;99.90
20035;DHT22;10178;48.034;9.800;2023-02-11T18:13:23;4.50;99.90
20035;DHT22;10178;48.034;9.800;2023-02-11T18:15:49;4.60;99.90
20035;DHT22;10178;48.034;9.800;2023-02-11T18:18:14;4.40;99.90
20035;DHT22;10178;48.034;9.800;2023-02-11T18:20:40;4.40;99.90
20035;DHT22;10178;48.034;9.800;2023-02-11T18:23:10;4.40;99.90
20035;DHT22;10178;48.034;9.800;2023-02-11T18:25:35;4.40;99.90
20035;DHT22;10178;48.034;9.800;2023-02-11T18:28:01;4.40;99.90
20035;DHT22;10178;48.034;9.800;2023-02-11T18:30:31;4.30;99.90
20035;DHT22;10178;48.034;9.800;2023-02-11T18:32:58;4.10;99.90
20035;DHT22;10178;48.034;9.800;2023-02-11T18:35:24;4.10;99.90